sensor_id;sensor_type;location;lat;lon;timestamp;temperature;humidity
33815;DHT22;20121;51.910;8.406;2023-02-08T00:01:28;-1.70;99.90
33815;DHT22;20121;51.910;8.406;2023-02-08T00:03:54;-1.90;99.90
33815;DHT22;20121;51.910;8.406;2023-02-08T00:06:19;-1.40;99.90
33815;DHT22;20121;51.910;8.406;2023-02-08T00:08:46;-1.70;99.90
33815;DHT22;20121;51.910;8.406;2023-02-08T00:11:12;-1.70;99.90
33815;DHT22;20121;51.910;8.406;2023-02-08T00:13:39;-1.70;99.90
33815;DHT22;20121;51.910;8.406;2023-02-08T00:16:09;-1.80;99.90
33815;DHT22;20121;51.910;8.406;2023-02-08T00:18:34;-1.70;99.90
33815;DHT22;20121;51.910;8.406;2023-02-08T00:21:00;-1.70;99.90
33815;DHT22;20121;51.910;8.406;2023-02-08T00:23:30;-1.70;99.90
33815;DHT22;20121;51.910;8.406;2023-02-08T00:25:56;-2.20;99.90
33815;DHT22;20121;51.910;8.406;2023-02-08T00:28:22;-1.70;99.90
33815;DHT22;20121;51.910;8.406;2023-02-08T00:30:47;-1.60;99.90
33815;DHT22;20121;51.910;8.406;2023-02-08T00:33:13;-1.70;99.90
33815;DHT22;20121;51.910;8.406;2023-02-08T00:35:38;-1.70;99.90
33815;DHT22;20121;51.910;8.406;2023-02-08T00:38:06;-1.70;99.90
33815;DHT22;20121;51.910;8.406;2023-02-08T00:40:33;-1.60;99.90
33815;DHT22;20121;51.910;8.406;2023-02-08T00:42:58;-1.70;99.90
33815;DHT22;20121;51.910;8.406;2023-02-08T00:45:24;-1.60;99.90
33815;DHT22;20121;51.910;8.406;2023-02-08T00:47:50;-1.40;99.90
33815;DHT22;20121;51.910;8.406;2023-02-08T00:50:15;-1.70;99.90
33815;DHT22;20121;51.910;8.406;2023-02-08T00:52:41;-1.70;99.90
33815;DHT22;20121;51.910;8.406;2023-02-08T00:55:07;-1.70;99.90
33815;DHT22;20121;51.910;8.406;2023-02-08T00:57:33;-1.70;99.90
33815;DHT22;20121;51.910;8.406;2023-02-08T00:59:59;-2.00;99.90
33815;DHT22;20121;51.910;8.406;2023-02-08T01:02:25;-2.00;99.90
33815;DHT22;20121;51.910;8.406;2023-02-08T01:04:51;-1.80;99.90
33815;DHT22;20121;51.910;8.406;2023-02-08T01:07:19;-1.80;99.90
33815;DHT22;20121;51.910;8.406;2023-02-08T01:09:45;-2.00;99.90
33815;DHT22;20121;51.910;8.406;2023-02-08T01:12:10;-1.80;99.90
33815;DHT22;20121;51.910;8.406;2023-02-08T01:14:37;-1.90;99.90
33815;DHT22;20121;51.910;8.406;2023-02-08T01:17:03;-1.90;99.90
33815;DHT22;20121;51.910;8.406;2023-02-08T01:19:29;-1.90;99.90
33815;DHT22;20121;51.910;8.406;2023-02-08T01:21:55;-1.90;99.90
33815;DHT22;20121;51.910;8.406;2023-02-08T01:24:21;-2.00;99.90
33815;DHT22;20121;51.910;8.406;2023-02-08T01:26:46;-2.00;99.90
33815;DHT22;20121;51.910;8.406;2023-02-08T01:29:12;-2.00;99.90
33815;DHT22;20121;51.910;8.406;2023-02-08T01:31:39;-2.00;99.90
33815;DHT22;20121;51.910;8.406;2023-02-08T01:34:06;-2.00;99.90
33815;DHT22;20121;51.910;8.406;2023-02-08T01:36:34;-2.00;99.90
33815;DHT22;20121;51.910;8.406;2023-02-08T01:39:00;-2.00;99.90
33815;DHT22;20121;51.910;8.406;2023-02-08T01:41:32;-2.00;99.90
33815;DHT22;20121;51.910;8.406;2023-02-08T01:46:36;-1.90;99.90
33815;DHT22;20121;51.910;8.406;2023-02-08T01:49:07;-2.10;99.90
33815;DHT22;20121;51.910;8.406;2023-02-08T01:51:46;-2.00;99.90
33815;DHT22;20121;51.910;8.406;2023-02-08T01:54:13;-2.00;99.90
33815;DHT22;20121;51.910;8.406;2023-02-08T01:56:43;-2.00;99.90
33815;DHT22;20121;51.910;8.406;2023-02-08T01:59:20;-2.00;99.90
33815;DHT22;20121;51.910;8.406;2023-02-08T02:01:49;-2.00;99.90
33815;DHT22;20121;51.910;8.406;2023-02-08T02:04:15;-2.00;99.90
33815;DHT22;20121;51.910;8.406;2023-02-08T02:06:44;-2.00;99.90
33815;DHT22;20121;51.910;8.406;2023-02-08T02:09:23;-2.00;99.90
33815;DHT22;20121;51.910;8.406;2023-02-08T02:11:50;-2.00;99.90
33815;DHT22;20121;51.910;8.406;2023-02-08T02:14:18;-2.00;99.90
33815;DHT22;20121;51.910;8.406;2023-02-08T02:16:43;-1.90;99.90
33815;DHT22;20121;51.910;8.406;2023-02-08T02:19:18;-2.00;99.90
33815;DHT22;20121;51.910;8.406;2023-02-08T02:25:06;-2.00;99.90
33815;DHT22;20121;51.910;8.406;2023-02-08T02:36:08;-1.70;99.90
33815;DHT22;20121;51.910;8.406;2023-02-08T02:44:22;-2.20;99.90
33815;DHT22;20121;51.910;8.406;2023-02-08T02:46:57;-2.20;99.90
33815;DHT22;20121;51.910;8.406;2023-02-08T02:52:22;-2.10;99.90
33815;DHT22;20121;51.910;8.406;2023-02-08T02:54:52;-2.20;99.90
33815;DHT22;20121;51.910;8.406;2023-02-08T02:57:26;-2.20;99.90
33815;DHT22;20121;51.910;8.406;2023-02-08T02:59:53;-2.10;99.90
33815;DHT22;20121;51.910;8.406;2023-02-08T03:02:23;-2.30;99.90
33815;DHT22;20121;51.910;8.406;2023-02-08T03:04:52;-2.70;99.90
33815;DHT22;20121;51.910;8.406;2023-02-08T03:21:17;-2.20;99.90
33815;DHT22;20121;51.910;8.406;2023-02-08T03:24:00;-2.20;99.90
33815;DHT22;20121;51.910;8.406;2023-02-08T03:31:55;-2.30;99.90
33815;DHT22;20121;51.910;8.406;2023-02-08T03:34:32;-2.30;99.90
33815;DHT22;20121;51.910;8.406;2023-02-08T03:37:06;-2.40;99.90
33815;DHT22;20121;51.910;8.406;2023-02-08T03:39:35;-2.40;99.90
33815;DHT22;20121;51.910;8.406;2023-02-08T03:42:05;-2.40;99.90
33815;DHT22;20121;51.910;8.406;2023-02-08T03:45:01;-2.40;99.90
33815;DHT22;20121;51.910;8.406;2023-02-08T03:47:33;-2.40;99.90
33815;DHT22;20121;51.910;8.406;2023-02-08T03:50:04;-2.50;99.90
33815;DHT22;20121;51.910;8.406;2023-02-08T03:52:32;-2.50;99.90
33815;DHT22;20121;51.910;8.406;2023-02-08T03:55:02;-2.50;99.90
33815;DHT22;20121;51.910;8.406;2023-02-08T03:57:37;-2.80;99.90
33815;DHT22;20121;51.910;8.406;2023-02-08T04:00:08;-2.60;99.90
33815;DHT22;20121;51.910;8.406;2023-02-08T04:02:39;-2.60;99.90
33815;DHT22;20121;51.910;8.406;2023-02-08T04:05:07;-2.60;99.90
33815;DHT22;20121;51.910;8.406;2023-02-08T04:07:33;-2.60;99.90
33815;DHT22;20121;51.910;8.406;2023-02-08T04:09:59;-2.70;99.90
33815;DHT22;20121;51.910;8.406;2023-02-08T04:12:25;-2.60;99.90
33815;DHT22;20121;51.910;8.406;2023-02-08T04:14:50;-2.70;99.90
33815;DHT22;20121;51.910;8.406;2023-02-08T04:17:16;-2.70;99.90
33815;DHT22;20121;51.910;8.406;2023-02-08T04:19:41;-2.70;99.90
33815;DHT22;20121;51.910;8.406;2023-02-08T04:22:07;-2.80;99.90
33815;DHT22;20121;51.910;8.406;2023-02-08T04:24:33;-2.80;99.90
33815;DHT22;20121;51.910;8.406;2023-02-08T04:26:58;-2.80;99.90
33815;DHT22;20121;51.910;8.406;2023-02-08T04:29:24;-2.90;99.90
33815;DHT22;20121;51.910;8.406;2023-02-08T04:31:49;-2.90;99.90
33815;DHT22;20121;51.910;8.406;2023-02-08T04:34:15;-2.90;99.90
33815;DHT22;20121;51.910;8.406;2023-02-08T04:36:41;-2.90;99.90
33815;DHT22;20121;51.910;8.406;2023-02-08T04:39:10;-2.90;99.90
33815;DHT22;20121;51.910;8.406;2023-02-08T04:41:35;-3.00;99.90
33815;DHT22;20121;51.910;8.406;2023-02-08T04:44:01;-3.00;99.90
33815;DHT22;20121;51.910;8.406;2023-02-08T04:46:26;-3.00;99.90
33815;DHT22;20121;51.910;8.406;2023-02-08T04:48:52;-3.00;99.90
33815;DHT22;20121;51.910;8.406;2023-02-08T04:51:18;-3.00;99.90
33815;DHT22;20121;51.910;8.406;2023-02-08T04:53:43;-3.00;99.90
33815;DHT22;20121;51.910;8.406;2023-02-08T04:56:09;-3.00;99.90
33815;DHT22;20121;51.910;8.406;2023-02-08T04:58:35;-3.00;99.90
33815;DHT22;20121;51.910;8.406;2023-02-08T05:01:05;-3.10;99.90
33815;DHT22;20121;51.910;8.406;2023-02-08T05:03:31;-3.10;99.90
33815;DHT22;20121;51.910;8.406;2023-02-08T05:05:58;-3.10;99.90
33815;DHT22;20121;51.910;8.406;2023-02-08T05:08:24;-3.10;99.90
33815;DHT22;20121;51.910;8.406;2023-02-08T05:10:49;-3.10;99.90
33815;DHT22;20121;51.910;8.406;2023-02-08T05:13:15;-3.10;99.90
33815;DHT22;20121;51.910;8.406;2023-02-08T05:15:41;-3.20;99.90
33815;DHT22;20121;51.910;8.406;2023-02-08T05:18:06;-3.20;99.90
33815;DHT22;20121;51.910;8.406;2023-02-08T05:20:32;-3.20;99.90
33815;DHT22;20121;51.910;8.406;2023-02-08T05:22:58;-3.20;99.90
33815;DHT22;20121;51.910;8.406;2023-02-08T05:25:24;-3.30;99.90
33815;DHT22;20121;51.910;8.406;2023-02-08T05:27:49;-3.30;99.90
33815;DHT22;20121;51.910;8.406;2023-02-08T05:30:15;-3.40;99.90
33815;DHT22;20121;51.910;8.406;2023-02-08T05:32:41;-3.30;99.90
33815;DHT22;20121;51.910;8.406;2023-02-08T05:35:07;-3.30;99.90
33815;DHT22;20121;51.910;8.406;2023-02-08T05:37:32;-3.40;99.90
33815;DHT22;20121;51.910;8.406;2023-02-08T05:39:58;-3.40;99.90
33815;DHT22;20121;51.910;8.406;2023-02-08T05:42:24;-3.50;99.90
33815;DHT22;20121;51.910;8.406;2023-02-08T05:44:49;-3.50;99.90
33815;DHT22;20121;51.910;8.406;2023-02-08T05:47:17;-3.50;99.90
33815;DHT22;20121;51.910;8.406;2023-02-08T05:49:42;-3.50;99.90
33815;DHT22;20121;51.910;8.406;2023-02-08T05:52:08;-3.50;99.90
33815;DHT22;20121;51.910;8.406;2023-02-08T05:54:34;-3.50;99.90
33815;DHT22;20121;51.910;8.406;2023-02-08T05:56:59;-3.50;99.90
33815;DHT22;20121;51.910;8.406;2023-02-08T05:59:25;-3.60;99.90
33815;DHT22;20121;51.910;8.406;2023-02-08T06:01:51;-3.60;99.90
33815;DHT22;20121;51.910;8.406;2023-02-08T06:04:16;-3.60;99.90
33815;DHT22;20121;51.910;8.406;2023-02-08T06:06:42;-3.60;99.90
33815;DHT22;20121;51.910;8.406;2023-02-08T06:09:07;-3.70;99.90
33815;DHT22;20121;51.910;8.406;2023-02-08T06:11:33;-3.70;99.90
33815;DHT22;20121;51.910;8.406;2023-02-08T06:14:00;-3.70;99.90
33815;DHT22;20121;51.910;8.406;2023-02-08T06:16:26;-3.70;99.90
33815;DHT22;20121;51.910;8.406;2023-02-08T06:18:52;-3.70;99.90
33815;DHT22;20121;51.910;8.406;2023-02-08T06:21:17;-3.80;99.90
33815;DHT22;20121;51.910;8.406;2023-02-08T06:23:43;-3.80;99.90
33815;DHT22;20121;51.910;8.406;2023-02-08T06:26:09;-3.80;99.90
33815;DHT22;20121;51.910;8.406;2023-02-08T06:28:34;-3.80;99.90
33815;DHT22;20121;51.910;8.406;2023-02-08T06:31:00;-4.30;99.90
33815;DHT22;20121;51.910;8.406;2023-02-08T06:33:25;-3.90;99.90
33815;DHT22;20121;51.910;8.406;2023-02-08T06:35:52;-3.80;99.90
33815;DHT22;20121;51.910;8.406;2023-02-08T06:38:18;-3.90;99.90
33815;DHT22;20121;51.910;8.406;2023-02-08T06:40:48;-3.90;99.90
33815;DHT22;20121;51.910;8.406;2023-02-08T06:43:14;-3.90;99.90
33815;DHT22;20121;51.910;8.406;2023-02-08T06:45:40;-3.90;99.90
33815;DHT22;20121;51.910;8.406;2023-02-08T06:48:07;-4.10;99.90
33815;DHT22;20121;51.910;8.406;2023-02-08T06:50:32;-3.90;99.90
33815;DHT22;20121;51.910;8.406;2023-02-08T06:52:58;-3.90;99.90
33815;DHT22;20121;51.910;8.406;2023-02-08T06:55:24;-3.90;99.90
33815;DHT22;20121;51.910;8.406;2023-02-08T06:57:52;-3.90;99.90
33815;DHT22;20121;51.910;8.406;2023-02-08T07:00:18;-3.90;99.90
33815;DHT22;20121;51.910;8.406;2023-02-08T07:02:44;-3.90;99.90
33815;DHT22;20121;51.910;8.406;2023-02-08T07:05:12;-3.90;99.90
33815;DHT22;20121;51.910;8.406;2023-02-08T07:07:38;-4.00;99.90
33815;DHT22;20121;51.910;8.406;2023-02-08T07:10:03;-3.80;99.90
33815;DHT22;20121;51.910;8.406;2023-02-08T07:12:32;-3.70;99.90
33815;DHT22;20121;51.910;8.406;2023-02-08T07:14:58;-3.70;99.90
33815;DHT22;20121;51.910;8.406;2023-02-08T07:17:23;-3.60;99.90
33815;DHT22;20121;51.910;8.406;2023-02-08T07:19:49;-3.50;99.90
33815;DHT22;20121;51.910;8.406;2023-02-08T07:22:15;-3.30;99.90
33815;DHT22;20121;51.910;8.406;2023-02-08T07:24:41;-3.40;99.90
33815;DHT22;20121;51.910;8.406;2023-02-08T07:27:09;-3.30;99.90
33815;DHT22;20121;51.910;8.406;2023-02-08T07:29:36;-3.30;99.90
33815;DHT22;20121;51.910;8.406;2023-02-08T07:32:03;-3.10;99.90
33815;DHT22;20121;51.910;8.406;2023-02-08T07:34:31;-3.10;99.90
33815;DHT22;20121;51.910;8.406;2023-02-08T07:36:57;-3.00;99.90
33815;DHT22;20121;51.910;8.406;2023-02-08T07:39:23;-2.90;99.90
33815;DHT22;20121;51.910;8.406;2023-02-08T07:41:49;-2.90;99.90
33815;DHT22;20121;51.910;8.406;2023-02-08T07:44:14;-2.70;99.90
33815;DHT22;20121;51.910;8.406;2023-02-08T07:46:40;-2.80;99.90
33815;DHT22;20121;51.910;8.406;2023-02-08T07:49:06;-2.40;99.90
33815;DHT22;20121;51.910;8.406;2023-02-08T07:51:32;-2.00;99.90
33815;DHT22;20121;51.910;8.406;2023-02-08T07:53:57;-2.20;99.90
33815;DHT22;20121;51.910;8.406;2023-02-08T07:56:23;-1.90;99.90
33815;DHT22;20121;51.910;8.406;2023-02-08T07:58:49;-1.20;99.90
33815;DHT22;20121;51.910;8.406;2023-02-08T08:01:14;-1.30;99.90
33815;DHT22;20121;51.910;8.406;2023-02-08T08:03:40;-1.00;99.90
33815;DHT22;20121;51.910;8.406;2023-02-08T08:06:06;-0.80;99.90
33815;DHT22;20121;51.910;8.406;2023-02-08T08:08:31;-0.60;99.90
33815;DHT22;20121;51.910;8.406;2023-02-08T08:10:57;-0.20;99.90
33815;DHT22;20121;51.910;8.406;2023-02-08T08:13:22;-0.20;99.90
33815;DHT22;20121;51.910;8.406;2023-02-08T08:15:48;0.00;99.90
33815;DHT22;20121;51.910;8.406;2023-02-08T08:18:14;0.10;99.90
33815;DHT22;20121;51.910;8.406;2023-02-08T08:20:40;0.30;99.90
33815;DHT22;20121;51.910;8.406;2023-02-08T08:23:06;0.40;99.90
33815;DHT22;20121;51.910;8.406;2023-02-08T08:25:31;0.60;99.90
33815;DHT22;20121;51.910;8.406;2023-02-08T08:27:57;0.70;99.90
33815;DHT22;20121;51.910;8.406;2023-02-08T08:30:23;0.70;99.90
33815;DHT22;20121;51.910;8.406;2023-02-08T08:32:49;0.80;99.90
33815;DHT22;20121;51.910;8.406;2023-02-08T08:35:14;0.90;99.90
33815;DHT22;20121;51.910;8.406;2023-02-08T08:37:40;1.00;99.90
33815;DHT22;20121;51.910;8.406;2023-02-08T08:40:06;1.10;99.90
33815;DHT22;20121;51.910;8.406;2023-02-08T08:42:33;1.20;99.90
33815;DHT22;20121;51.910;8.406;2023-02-08T08:44:59;1.20;99.90
33815;DHT22;20121;51.910;8.406;2023-02-08T08:47:25;1.30;99.90
33815;DHT22;20121;51.910;8.406;2023-02-08T08:49:50;1.30;99.90
33815;DHT22;20121;51.910;8.406;2023-02-08T08:52:16;1.60;99.90
33815;DHT22;20121;51.910;8.406;2023-02-08T08:54:42;1.40;99.90
33815;DHT22;20121;51.910;8.406;2023-02-08T08:57:08;1.50;99.90
33815;DHT22;20121;51.910;8.406;2023-02-08T08:59:33;1.60;99.90
33815;DHT22;20121;51.910;8.406;2023-02-08T09:01:59;1.30;99.90
33815;DHT22;20121;51.910;8.406;2023-02-08T09:04:25;1.80;99.90
33815;DHT22;20121;51.910;8.406;2023-02-08T09:06:52;1.70;99.90
33815;DHT22;20121;51.910;8.406;2023-02-08T09:09:19;1.90;99.90
33815;DHT22;20121;51.910;8.406;2023-02-08T09:11:45;2.10;99.90
33815;DHT22;20121;51.910;8.406;2023-02-08T09:14:10;2.10;99.90
33815;DHT22;20121;51.910;8.406;2023-02-08T09:16:36;2.30;99.90
33815;DHT22;20121;51.910;8.406;2023-02-08T09:19:04;2.40;99.90
33815;DHT22;20121;51.910;8.406;2023-02-08T09:21:30;2.30;99.60
33815;DHT22;20121;51.910;8.406;2023-02-08T09:23:56;2.40;99.20
33815;DHT22;20121;51.910;8.406;2023-02-08T09:26:22;2.50;99.10
33815;DHT22;20121;51.910;8.406;2023-02-08T09:28:49;2.40;98.90
33815;DHT22;20121;51.910;8.406;2023-02-08T09:31:23;2.20;98.50
33815;DHT22;20121;51.910;8.406;2023-02-08T09:33:50;3.00;98.90
33815;DHT22;20121;51.910;8.406;2023-02-08T09:36:16;2.60;98.60
33815;DHT22;20121;51.910;8.406;2023-02-08T09:38:43;2.50;98.50
33815;DHT22;20121;51.910;8.406;2023-02-08T09:41:47;2.90;98.90
33815;DHT22;20121;51.910;8.406;2023-02-08T09:47:05;3.00;98.90
33815;DHT22;20121;51.910;8.406;2023-02-08T09:49:38;3.00;98.40
33815;DHT22;20121;51.910;8.406;2023-02-08T09:52:12;3.20;98.30
33815;DHT22;20121;51.910;8.406;2023-02-08T09:57:43;3.40;97.80
33815;DHT22;20121;51.910;8.406;2023-02-08T10:00:15;3.40;96.50
33815;DHT22;20121;51.910;8.406;2023-02-08T10:02:43;3.50;97.20
33815;DHT22;20121;51.910;8.406;2023-02-08T10:05:14;3.60;96.30
33815;DHT22;20121;51.910;8.406;2023-02-08T10:07:41;3.70;95.80
33815;DHT22;20121;51.910;8.406;2023-02-08T10:10:14;3.80;95.60
33815;DHT22;20121;51.910;8.406;2023-02-08T10:13:00;3.90;95.80
33815;DHT22;20121;51.910;8.406;2023-02-08T10:21:33;4.20;93.90
33815;DHT22;20121;51.910;8.406;2023-02-08T10:26:48;4.30;93.20
33815;DHT22;20121;51.910;8.406;2023-02-08T10:32:32;4.50;92.90
33815;DHT22;20121;51.910;8.406;2023-02-08T10:38:27;4.90;92.10
33815;DHT22;20121;51.910;8.406;2023-02-08T10:41:01;5.00;92.00
33815;DHT22;20121;51.910;8.406;2023-02-08T10:46:28;5.60;92.90
33815;DHT22;20121;51.910;8.406;2023-02-08T10:49:15;5.40;93.80
33815;DHT22;20121;51.910;8.406;2023-02-08T10:51:45;5.40;94.50
33815;DHT22;20121;51.910;8.406;2023-02-08T10:54:12;6.00;94.10
33815;DHT22;20121;51.910;8.406;2023-02-08T10:56:53;5.50;93.00
33815;DHT22;20121;51.910;8.406;2023-02-08T10:59:34;5.70;91.00
33815;DHT22;20121;51.910;8.406;2023-02-08T11:02:01;5.90;90.00
33815;DHT22;20121;51.910;8.406;2023-02-08T11:04:27;5.80;86.00
33815;DHT22;20121;51.910;8.406;2023-02-08T11:06:53;5.90;99.90
33815;DHT22;20121;51.910;8.406;2023-02-08T11:09:25;5.90;84.10
33815;DHT22;20121;51.910;8.406;2023-02-08T11:11:51;6.10;84.30
33815;DHT22;20121;51.910;8.406;2023-02-08T11:14:24;6.40;86.00
33815;DHT22;20121;51.910;8.406;2023-02-08T11:16:54;6.60;92.00
33815;DHT22;20121;51.910;8.406;2023-02-08T11:19:27;6.50;90.50
33815;DHT22;20121;51.910;8.406;2023-02-08T11:21:55;6.50;88.10
33815;DHT22;20121;51.910;8.406;2023-02-08T11:26:53;6.70;87.10
33815;DHT22;20121;51.910;8.406;2023-02-08T11:29:25;6.70;86.20
33815;DHT22;20121;51.910;8.406;2023-02-08T11:34:25;6.80;82.80
33815;DHT22;20121;51.910;8.406;2023-02-08T11:36:51;6.90;84.00
33815;DHT22;20121;51.910;8.406;2023-02-08T11:39:22;7.00;86.40
33815;DHT22;20121;51.910;8.406;2023-02-08T11:41:51;6.10;85.40
33815;DHT22;20121;51.910;8.406;2023-02-08T11:46:57;7.40;79.30
33815;DHT22;20121;51.910;8.406;2023-02-08T11:49:39;7.30;75.80
33815;DHT22;20121;51.910;8.406;2023-02-08T11:52:18;7.40;74.80
33815;DHT22;20121;51.910;8.406;2023-02-08T11:54:44;7.50;74.60
33815;DHT22;20121;51.910;8.406;2023-02-08T11:57:16;7.10;74.60
33815;DHT22;20121;51.910;8.406;2023-02-08T11:59:44;7.50;75.80
33815;DHT22;20121;51.910;8.406;2023-02-08T12:02:35;7.40;73.00
33815;DHT22;20121;51.910;8.406;2023-02-08T12:05:03;7.50;73.60
33815;DHT22;20121;51.910;8.406;2023-02-08T12:10:51;7.50;75.50
33815;DHT22;20121;51.910;8.406;2023-02-08T12:16:37;7.40;99.00
33815;DHT22;20121;51.910;8.406;2023-02-08T12:22:16;7.70;72.50
33815;DHT22;20121;51.910;8.406;2023-02-08T12:32:56;7.70;99.90
33815;DHT22;20121;51.910;8.406;2023-02-08T12:35:49;7.60;74.00
33815;DHT22;20121;51.910;8.406;2023-02-08T12:38:32;7.50;70.40
33815;DHT22;20121;51.910;8.406;2023-02-08T12:41:30;7.50;69.90
33815;DHT22;20121;51.910;8.406;2023-02-08T12:44:06;7.40;69.70
33815;DHT22;20121;51.910;8.406;2023-02-08T12:46:59;7.50;69.40
33815;DHT22;20121;51.910;8.406;2023-02-08T12:49:51;7.50;71.80
33815;DHT22;20121;51.910;8.406;2023-02-08T12:52:37;7.60;99.90
33815;DHT22;20121;51.910;8.406;2023-02-08T12:55:28;7.40;71.90
33815;DHT22;20121;51.910;8.406;2023-02-08T12:58:13;7.50;71.10
33815;DHT22;20121;51.910;8.406;2023-02-08T13:00:42;7.70;68.50
33815;DHT22;20121;51.910;8.406;2023-02-08T13:05:47;7.50;69.70
33815;DHT22;20121;51.910;8.406;2023-02-08T13:14:05;7.50;64.30
33815;DHT22;20121;51.910;8.406;2023-02-08T13:16:44;7.50;66.20
33815;DHT22;20121;51.910;8.406;2023-02-08T13:20:04;7.30;66.50
33815;DHT22;20121;51.910;8.406;2023-02-08T13:22:04;7.30;66.70
33815;DHT22;20121;51.910;8.406;2023-02-08T13:26:55;7.60;66.50
33815;DHT22;20121;51.910;8.406;2023-02-08T13:29:22;7.20;67.40
33815;DHT22;20121;51.910;8.406;2023-02-08T13:32:10;7.70;66.90
33815;DHT22;20121;51.910;8.406;2023-02-08T13:34:49;7.50;67.00
33815;DHT22;20121;51.910;8.406;2023-02-08T13:37:25;7.50;67.60
33815;DHT22;20121;51.910;8.406;2023-02-08T13:40:04;7.40;66.40
33815;DHT22;20121;51.910;8.406;2023-02-08T13:45:50;7.50;67.80
33815;DHT22;20121;51.910;8.406;2023-02-08T13:48:17;7.40;65.70
33815;DHT22;20121;51.910;8.406;2023-02-08T13:50:52;8.20;66.80
33815;DHT22;20121;51.910;8.406;2023-02-08T13:56:37;7.40;66.00
33815;DHT22;20121;51.910;8.406;2023-02-08T13:59:26;7.70;65.90
33815;DHT22;20121;51.910;8.406;2023-02-08T14:02:19;7.50;65.70
33815;DHT22;20121;51.910;8.406;2023-02-08T14:04:52;7.50;65.30
33815;DHT22;20121;51.910;8.406;2023-02-08T14:07:38;7.50;66.50
33815;DHT22;20121;51.910;8.406;2023-02-08T14:10:25;7.60;66.30
33815;DHT22;20121;51.910;8.406;2023-02-08T14:13:02;7.40;65.80
33815;DHT22;20121;51.910;8.406;2023-02-08T14:15:33;7.40;66.30
33815;DHT22;20121;51.910;8.406;2023-02-08T14:18:01;7.20;65.20
33815;DHT22;20121;51.910;8.406;2023-02-08T14:20:35;7.40;65.50
33815;DHT22;20121;51.910;8.406;2023-02-08T14:23:27;7.40;64.10
33815;DHT22;20121;51.910;8.406;2023-02-08T14:25:54;8.30;65.80
33815;DHT22;20121;51.910;8.406;2023-02-08T14:28:33;7.30;65.50
33815;DHT22;20121;51.910;8.406;2023-02-08T14:31:03;7.10;65.50
33815;DHT22;20121;51.910;8.406;2023-02-08T14:33:39;7.10;66.10
33815;DHT22;20121;51.910;8.406;2023-02-08T14:36:18;7.80;67.00
33815;DHT22;20121;51.910;8.406;2023-02-08T14:39:04;7.00;66.40
33815;DHT22;20121;51.910;8.406;2023-02-08T14:41:47;7.10;67.60
33815;DHT22;20121;51.910;8.406;2023-02-08T14:50:01;6.80;68.60
33815;DHT22;20121;51.910;8.406;2023-02-08T14:52:30;7.00;99.90
33815;DHT22;20121;51.910;8.406;2023-02-08T14:55:02;6.70;68.30
33815;DHT22;20121;51.910;8.406;2023-02-08T14:57:34;6.70;68.80
33815;DHT22;20121;51.910;8.406;2023-02-08T15:00:03;6.70;69.30
33815;DHT22;20121;51.910;8.406;2023-02-08T15:02:30;6.70;99.90
33815;DHT22;20121;51.910;8.406;2023-02-08T15:05:01;6.50;70.50
33815;DHT22;20121;51.910;8.406;2023-02-08T15:07:54;6.50;70.40
33815;DHT22;20121;51.910;8.406;2023-02-08T15:10:23;6.60;72.20
33815;DHT22;20121;51.910;8.406;2023-02-08T15:12:55;6.60;70.40
33815;DHT22;20121;51.910;8.406;2023-02-08T15:15:42;7.20;72.40
33815;DHT22;20121;51.910;8.406;2023-02-08T15:18:37;6.30;72.90
33815;DHT22;20121;51.910;8.406;2023-02-08T15:21:06;6.20;72.90
33815;DHT22;20121;51.910;8.406;2023-02-08T15:23:39;6.80;72.50
33815;DHT22;20121;51.910;8.406;2023-02-08T15:26:19;6.10;71.70
33815;DHT22;20121;51.910;8.406;2023-02-08T15:28:45;6.50;72.60
33815;DHT22;20121;51.910;8.406;2023-02-08T15:31:20;6.10;72.50
33815;DHT22;20121;51.910;8.406;2023-02-08T15:33:47;6.00;71.80
33815;DHT22;20121;51.910;8.406;2023-02-08T15:38:51;6.10;73.80
33815;DHT22;20121;51.910;8.406;2023-02-08T15:41:29;5.90;72.50
33815;DHT22;20121;51.910;8.406;2023-02-08T15:46:28;5.70;74.50
33815;DHT22;20121;51.910;8.406;2023-02-08T15:48:54;5.70;74.60
33815;DHT22;20121;51.910;8.406;2023-02-08T15:51:23;5.60;75.80
33815;DHT22;20121;51.910;8.406;2023-02-08T15:53:52;6.60;76.50
33815;DHT22;20121;51.910;8.406;2023-02-08T15:56:31;5.60;76.00
33815;DHT22;20121;51.910;8.406;2023-02-08T15:58:59;5.40;76.00
33815;DHT22;20121;51.910;8.406;2023-02-08T16:01:25;5.40;76.10
33815;DHT22;20121;51.910;8.406;2023-02-08T16:03:57;5.30;77.50
33815;DHT22;20121;51.910;8.406;2023-02-08T16:06:26;5.60;78.30
33815;DHT22;20121;51.910;8.406;2023-02-08T16:08:55;5.30;78.40
33815;DHT22;20121;51.910;8.406;2023-02-08T16:11:25;5.10;78.10
33815;DHT22;20121;51.910;8.406;2023-02-08T16:13:54;5.20;78.90
33815;DHT22;20121;51.910;8.406;2023-02-08T16:16:39;4.90;79.20
33815;DHT22;20121;51.910;8.406;2023-02-08T16:21:44;4.90;80.50
33815;DHT22;20121;51.910;8.406;2023-02-08T16:26:40;4.50;80.30
33815;DHT22;20121;51.910;8.406;2023-02-08T16:29:20;4.60;80.30
33815;DHT22;20121;51.910;8.406;2023-02-08T16:31:48;4.70;82.00
33815;DHT22;20121;51.910;8.406;2023-02-08T16:34:20;4.50;81.40
33815;DHT22;20121;51.910;8.406;2023-02-08T16:36:49;4.40;81.80
33815;DHT22;20121;51.910;8.406;2023-02-08T16:39:34;4.30;82.50
33815;DHT22;20121;51.910;8.406;2023-02-08T16:42:04;4.20;82.50
33815;DHT22;20121;51.910;8.406;2023-02-08T16:44:32;4.30;83.50
33815;DHT22;20121;51.910;8.406;2023-02-08T16:46:59;4.00;83.10
33815;DHT22;20121;51.910;8.406;2023-02-08T16:49:25;4.00;83.60
33815;DHT22;20121;51.910;8.406;2023-02-08T16:51:58;3.80;83.30
33815;DHT22;20121;51.910;8.406;2023-02-08T16:54:24;4.30;84.50
33815;DHT22;20121;51.910;8.406;2023-02-08T16:56:52;3.90;83.70
33815;DHT22;20121;51.910;8.406;2023-02-08T16:59:27;3.90;83.90
33815;DHT22;20121;51.910;8.406;2023-02-08T17:01:55;3.60;84.20
33815;DHT22;20121;51.910;8.406;2023-02-08T17:04:22;3.60;83.90
33815;DHT22;20121;51.910;8.406;2023-02-08T17:06:48;3.70;85.00
33815;DHT22;20121;51.910;8.406;2023-02-08T17:09:14;3.50;85.00
33815;DHT22;20121;51.910;8.406;2023-02-08T17:11:40;3.60;85.70
33815;DHT22;20121;51.910;8.406;2023-02-08T17:14:08;3.50;86.20
33815;DHT22;20121;51.910;8.406;2023-02-08T17:16:35;3.50;87.00
33815;DHT22;20121;51.910;8.406;2023-02-08T17:19:02;3.30;86.80
33815;DHT22;20121;51.910;8.406;2023-02-08T17:21:28;3.40;87.50
33815;DHT22;20121;51.910;8.406;2023-02-08T17:23:56;3.30;87.90
33815;DHT22;20121;51.910;8.406;2023-02-08T17:26:27;3.30;88.20
33815;DHT22;20121;51.910;8.406;2023-02-08T17:28:54;3.20;88.40
33815;DHT22;20121;51.910;8.406;2023-02-08T17:31:20;3.20;89.30
33815;DHT22;20121;51.910;8.406;2023-02-08T17:33:46;3.10;88.90
33815;DHT22;20121;51.910;8.406;2023-02-08T17:36:13;3.10;88.60
33815;DHT22;20121;51.910;8.406;2023-02-08T17:38:41;3.00;88.70
33815;DHT22;20121;51.910;8.406;2023-02-08T17:41:18;3.00;89.60
33815;DHT22;20121;51.910;8.406;2023-02-08T17:43:45;3.30;89.70
33815;DHT22;20121;51.910;8.406;2023-02-08T17:46:16;2.90;89.40
33815;DHT22;20121;51.910;8.406;2023-02-08T17:48:42;2.90;89.40
33815;DHT22;20121;51.910;8.406;2023-02-08T17:51:10;2.80;89.80
33815;DHT22;20121;51.910;8.406;2023-02-08T17:53:38;2.80;90.00
33815;DHT22;20121;51.910;8.406;2023-02-08T17:56:12;2.70;90.30
33815;DHT22;20121;51.910;8.406;2023-02-08T17:58:40;2.60;90.40
33815;DHT22;20121;51.910;8.406;2023-02-08T18:01:06;2.40;90.30